createdAt,value
2018-01-07T00:00:24.030Z,11.13
2018-01-07T00:02:51.618Z,9.47
2018-01-07T00:05:19.876Z,9.30
2018-01-07T00:07:47.429Z,8.90
2018-01-07T00:10:15.699Z,8.83
2018-01-07T00:12:43.178Z,8.23
2018-01-07T00:15:11.433Z,7.70
2018-01-07T00:17:38.897Z,7.40
2018-01-07T00:20:07.120Z,7.30
2018-01-07T00:22:34.596Z,7.13
2018-01-07T00:25:02.051Z,6.53
2018-01-07T00:27:29.535Z,7.50
2018-01-07T00:29:57.860Z,7.83
2018-01-07T00:32:25.321Z,8.57
2018-01-07T00:34:52.799Z,8.30
2018-01-07T00:37:20.288Z,8.03
2018-01-07T00:39:48.494Z,7.43
2018-01-07T00:42:15.973Z,7.43
2018-01-07T00:44:43.506Z,7.80
2018-01-07T00:47:10.976Z,7.57
2018-01-07T00:49:38.489Z,8.80
2018-01-07T00:52:06.744Z,7.37
2018-01-07T00:54:34.320Z,7.57
2018-01-07T00:57:02.566Z,8.10
2018-01-07T00:59:30.068Z,8.13
2018-01-07T01:01:57.567Z,7.93
2018-01-07T01:04:25.062Z,8.20
2018-01-07T01:06:53.372Z,7.30
2018-01-07T01:09:20.835Z,7.67
2018-01-07T01:11:48.413Z,7.73
2018-01-07T01:14:15.920Z,7.90
2018-01-07T01:16:43.403Z,8.20
2018-01-07T01:19:10.843Z,8.00
2018-01-07T01:21:38.317Z,7.60
2018-01-07T01:24:05.792Z,7.87
2018-01-07T01:26:33.319Z,8.40
2018-01-07T01:29:00.962Z,7.13
2018-01-07T01:31:29.204Z,8.00
2018-01-07T01:33:56.764Z,6.87
2018-01-07T01:36:24.310Z,7.30
2018-01-07T01:38:51.865Z,6.80
2018-01-07T01:41:19.325Z,7.47
2018-01-07T01:43:46.789Z,8.03
2018-01-07T01:46:14.247Z,7.37
2018-01-07T01:48:41.760Z,8.13
2018-01-07T01:51:09.237Z,9.47
2018-01-07T01:53:36.705Z,7.17
2018-01-07T01:56:04.182Z,7.93
2018-01-07T01:58:32.394Z,7.60
2018-01-07T02:00:59.949Z,8.30
2018-01-07T02:03:27.438Z,7.40
2018-01-07T02:05:54.912Z,8.63
2018-01-07T02:08:22.391Z,8.40
2018-01-07T02:10:50.612Z,7.47
2018-01-07T02:13:18.088Z,7.00
2018-01-07T02:15:45.557Z,7.80
2018-01-07T02:18:13.030Z,7.00
2018-01-07T02:20:41.255Z,8.17
2018-01-07T02:23:08.840Z,7.60
2018-01-07T02:25:36.319Z,7.60
2018-01-07T02:28:04.558Z,7.43
2018-01-07T02:30:32.807Z,7.03
2018-01-07T02:33:00.310Z,6.97
2018-01-07T02:35:27.765Z,6.90
2018-01-07T02:37:56.037Z,8.53
2018-01-07T02:40:23.584Z,6.50
2018-01-07T02:42:51.069Z,8.47
2018-01-07T02:45:19.424Z,6.77
2018-01-07T02:47:46.884Z,7.53
2018-01-07T02:50:15.224Z,7.30
2018-01-07T02:52:42.684Z,7.80
2018-01-07T02:55:10.169Z,7.20
2018-01-07T02:57:37.734Z,7.03
2018-01-07T03:00:06.006Z,6.40
2018-01-07T03:02:33.556Z,6.30
2018-01-07T03:05:01.040Z,6.67
2018-01-07T03:07:28.515Z,6.60
2018-01-07T03:09:55.968Z,7.53
2018-01-07T03:12:23.448Z,7.40
2018-01-07T03:14:50.952Z,6.60
2018-01-07T03:17:19.162Z,6.60
2018-01-07T03:19:46.650Z,6.73
2018-01-07T03:22:14.158Z,6.77
2018-01-07T03:24:41.598Z,5.90
2018-01-07T03:27:09.829Z,7.10
2018-01-07T03:29:37.409Z,6.43
2018-01-07T03:32:04.864Z,6.70
2018-01-07T03:34:32.349Z,6.83
2018-01-07T03:36:59.824Z,6.13
2018-01-07T03:39:27.278Z,6.40
2018-01-07T03:41:54.748Z,6.20
2018-01-07T03:44:22.245Z,5.90
2018-01-07T03:46:49.710Z,5.50
2018-01-07T03:49:17.931Z,6.37
2018-01-07T03:51:45.432Z,6.67
2018-01-07T03:54:12.904Z,6.43
2018-01-07T03:56:41.142Z,5.90
2018-01-07T03:59:08.610Z,6.30
2018-01-07T04:01:36.222Z,6.20
2018-01-07T04:04:03.718Z,6.40
2018-01-07T04:06:31.210Z,6.53
2018-01-07T04:08:59.460Z,6.13
2018-01-07T04:11:26.944Z,6.20
2018-01-07T04:13:54.404Z,6.60
2018-01-07T04:16:21.876Z,6.40
2018-01-07T04:18:49.360Z,6.50
2018-01-07T04:21:16.807Z,5.90
2018-01-07T04:23:44.397Z,6.83
2018-01-07T04:26:11.852Z,7.40
2018-01-07T04:28:39.342Z,7.27
2018-01-07T04:31:06.783Z,7.00
2018-01-07T04:33:35.009Z,7.10
2018-01-07T04:36:02.484Z,5.83
2018-01-07T04:38:30.062Z,5.47
2018-01-07T04:40:58.317Z,5.40
2018-01-07T04:43:25.775Z,6.13
2018-01-07T04:45:53.242Z,5.80
2018-01-07T04:48:20.806Z,6.23
2018-01-07T04:50:49.048Z,5.60
2018-01-07T04:53:16.495Z,5.50
2018-01-07T04:55:44.090Z,6.10
2018-01-07T04:58:11.650Z,6.43
2018-01-07T05:00:39.863Z,7.20
2018-01-07T05:03:07.335Z,7.97
2018-01-07T05:05:34.838Z,8.37
2018-01-07T05:08:03.104Z,7.30
2018-01-07T05:10:30.568Z,7.70
2018-01-07T05:12:58.850Z,7.77
2018-01-07T05:15:27.095Z,8.07
2018-01-07T05:17:54.675Z,7.80
2018-01-07T05:20:22.897Z,8.53
2018-01-07T05:22:50.363Z,8.87
2018-01-07T05:25:18.001Z,7.80
2018-01-07T05:27:45.457Z,7.73
2018-01-07T05:30:12.963Z,8.53
2018-01-07T05:32:40.429Z,9.60
2018-01-07T05:35:07.884Z,8.90
2018-01-07T05:37:35.341Z,9.10
2018-01-07T05:40:03.610Z,9.50
2018-01-07T05:42:31.066Z,9.70
2018-01-07T05:44:59.306Z,9.67
2018-01-07T05:47:26.799Z,10.03
2018-01-07T05:49:54.291Z,9.90
2018-01-07T05:52:21.764Z,9.63
2018-01-07T05:54:49.244Z,11.13
2018-01-07T05:57:16.690Z,9.47
2018-01-07T05:59:44.198Z,10.60
2018-01-07T06:02:12.430Z,11.10
2018-01-07T06:04:39.897Z,10.20
2018-01-07T06:07:07.387Z,11.63
2018-01-07T06:09:34.849Z,8.93
2018-01-07T06:12:02.331Z,10.63
2018-01-07T06:14:29.801Z,10.40
2018-01-07T06:16:57.308Z,10.40
2018-01-07T06:19:25.520Z,11.80
2018-01-07T06:21:53.002Z,10.80
2018-01-07T06:24:20.526Z,11.03
2018-01-07T06:26:48.029Z,11.27
2018-01-07T06:29:15.496Z,14.20
2018-01-07T06:31:43.743Z,11.13
2018-01-07T06:34:11.258Z,10.97
2018-01-07T06:36:38.714Z,11.17
2018-01-07T06:39:06.175Z,11.00
2018-01-07T06:41:33.655Z,10.07
2018-01-07T06:44:01.163Z,10.10
2018-01-07T06:46:28.712Z,11.37
2018-01-07T06:48:56.936Z,10.90
2018-01-07T06:51:24.419Z,10.90
2018-01-07T06:53:51.904Z,12.80
2018-01-07T06:56:19.358Z,13.00
2018-01-07T06:58:46.905Z,15.10
2018-01-07T07:01:15.140Z,17.43
2018-01-07T07:03:42.639Z,14.00
2018-01-07T07:06:10.930Z,15.70
2018-01-07T07:08:38.418Z,16.73
2018-01-07T07:11:05.880Z,19.23
2018-01-07T07:13:33.376Z,19.70
2018-01-07T07:16:01.623Z,18.17
2018-01-07T07:18:29.106Z,16.90
2018-01-07T07:20:57.358Z,16.90
2018-01-07T07:23:24.822Z,17.40
2018-01-07T07:25:52.328Z,18.10
2018-01-07T07:28:19.836Z,17.43
2018-01-07T07:30:47.382Z,18.00
2018-01-07T07:33:14.858Z,17.80
2018-01-07T07:35:43.120Z,18.43
2018-01-07T07:38:10.571Z,19.10
2018-01-07T07:40:38.057Z,16.80
2018-01-07T07:43:06.306Z,18.57
2018-01-07T07:45:33.861Z,16.97
2018-01-07T07:48:01.321Z,18.07
2018-01-07T07:50:28.885Z,18.10
2018-01-07T07:52:57.138Z,18.70
2018-01-07T07:55:24.659Z,18.13
2018-01-07T07:57:52.147Z,16.90
2018-01-07T08:00:19.622Z,15.73
2018-01-07T08:02:47.133Z,16.13
2018-01-07T08:05:14.602Z,15.43
2018-01-07T08:07:42.191Z,18.87
2018-01-07T08:10:09.673Z,16.07
2018-01-07T08:12:37.948Z,16.47
2018-01-07T08:15:06.201Z,15.67
2018-01-07T08:17:33.712Z,16.63
2018-01-07T08:20:02.052Z,16.00
2018-01-07T08:22:30.322Z,16.10
2018-01-07T08:24:58.553Z,16.93
2018-01-07T08:27:26.029Z,14.60
2018-01-07T08:29:53.514Z,18.10
2018-01-07T08:32:21.763Z,15.40
2018-01-07T08:34:49.237Z,14.93
2018-01-07T08:37:17.466Z,15.70
2018-01-07T08:39:44.937Z,14.70
2018-01-07T08:42:12.408Z,14.97
2018-01-07T08:44:39.874Z,15.73
2018-01-07T08:47:08.146Z,16.07
2018-01-07T08:49:35.613Z,16.63
2018-01-07T08:52:03.878Z,16.77
2018-01-07T08:54:31.428Z,16.93
2018-01-07T08:56:59.680Z,16.10
2018-01-07T08:59:27.137Z,15.33
2018-01-07T09:01:55.025Z,17.77
2018-01-07T09:04:22.501Z,15.50
2018-01-07T09:06:50.742Z,15.33
2018-01-07T09:09:18.225Z,16.70
2018-01-07T09:11:46.467Z,15.43
2018-01-07T09:14:13.942Z,17.87
2018-01-07T09:16:41.414Z,17.33
2018-01-07T09:19:09.642Z,16.80
2018-01-07T09:21:37.133Z,16.73
2018-01-07T09:24:05.389Z,15.80
2018-01-07T09:26:32.878Z,16.50
2018-01-07T09:29:01.219Z,15.20
2018-01-07T09:31:28.687Z,14.63
2018-01-07T09:33:56.172Z,15.90
2018-01-07T09:36:24.520Z,15.80
2018-01-07T09:38:51.997Z,14.60
2018-01-07T09:41:20.253Z,15.77
2018-01-07T09:43:47.798Z,13.83
2018-01-07T09:46:15.260Z,15.03
2018-01-07T09:48:42.758Z,14.40
2018-01-07T09:51:10.225Z,14.93
2018-01-07T09:53:37.725Z,15.50
2018-01-07T09:56:05.313Z,15.20
2018-01-07T09:58:32.781Z,14.53
2018-01-07T10:01:00.283Z,14.60
2018-01-07T10:03:27.805Z,14.73
2018-01-07T10:05:55.276Z,13.03
2018-01-07T10:08:22.756Z,14.80
2018-01-07T10:10:50.345Z,14.23
2018-01-07T10:13:18.655Z,13.40
2018-01-07T10:15:46.135Z,16.23
2018-01-07T10:18:13.750Z,15.90
2018-01-07T10:20:41.391Z,14.97
2018-01-07T10:23:09.646Z,14.90
2018-01-07T10:25:37.115Z,15.27
2018-01-07T10:28:05.353Z,15.67
2018-01-07T10:30:32.854Z,14.60
2018-01-07T10:33:01.131Z,15.97
2018-01-07T10:35:29.365Z,15.13
2018-01-07T10:37:56.956Z,16.67
2018-01-07T10:40:25.188Z,17.20
2018-01-07T10:42:52.661Z,17.00
2018-01-07T10:45:20.157Z,17.93
2018-01-07T10:47:48.413Z,17.20
2018-01-07T10:50:15.889Z,18.40
2018-01-07T10:52:43.351Z,17.13
2018-01-07T10:55:10.923Z,17.33
2018-01-07T10:57:38.393Z,17.33
2018-01-07T11:00:05.870Z,17.33
2018-01-07T11:02:33.358Z,17.57
2018-01-07T11:05:01.628Z,19.60
2018-01-07T11:07:29.861Z,18.80
2018-01-07T11:09:57.366Z,17.00
2018-01-07T11:12:25.607Z,17.00
2018-01-07T11:14:53.191Z,17.77
2018-01-07T11:17:21.436Z,16.07
2018-01-07T11:19:49.003Z,16.20
2018-01-07T11:22:16.517Z,16.10
2018-01-07T11:24:43.981Z,15.93
2018-01-07T11:27:11.475Z,16.43
2018-01-07T11:29:39.106Z,17.30
2018-01-07T11:32:06.559Z,17.40
2018-01-07T11:34:34.054Z,16.47
2018-01-07T11:37:01.556Z,18.57
2018-01-07T11:39:29.003Z,18.47
2018-01-07T11:41:56.505Z,15.73
2018-01-07T11:44:24.012Z,18.00
2018-01-07T11:46:51.505Z,16.13
2018-01-07T11:49:19.045Z,16.37
2018-01-07T11:51:46.545Z,17.80
2018-01-07T11:54:14.074Z,16.93
2018-01-07T11:56:41.528Z,16.87
2018-01-07T11:59:09.008Z,15.33
2018-01-07T12:01:36.572Z,16.60
2018-01-07T12:04:04.279Z,17.73
2018-01-07T12:06:31.729Z,18.60
2018-01-07T12:08:59.181Z,17.20
2018-01-07T12:11:26.686Z,18.50
2018-01-07T12:13:54.169Z,17.63
2018-01-07T12:16:22.417Z,18.33
2018-01-07T12:18:49.899Z,15.70
2018-01-07T12:21:17.414Z,16.20
2018-01-07T12:23:44.938Z,17.30
2018-01-07T12:26:13.180Z,17.40
2018-01-07T12:28:40.666Z,17.90
2018-01-07T12:31:08.152Z,17.50
2018-01-07T12:33:35.616Z,17.40
2018-01-07T12:36:03.084Z,17.07
2018-01-07T12:38:30.647Z,16.13
2018-01-07T12:40:58.072Z,16.20
2018-01-07T12:43:25.541Z,15.60
2018-01-07T12:45:53.023Z,16.23
2018-01-07T12:48:20.497Z,14.13
2018-01-07T12:50:48.752Z,15.97
2018-01-07T12:53:16.213Z,16.60
2018-01-07T12:55:43.674Z,15.27
2018-01-07T12:58:11.940Z,16.90
2018-01-07T13:00:39.404Z,17.30
2018-01-07T13:03:06.957Z,17.47
2018-01-07T13:05:34.436Z,16.60
2018-01-07T13:08:02.688Z,16.67
2018-01-07T13:10:30.178Z,17.73
2018-01-07T13:12:57.998Z,17.67
2018-01-07T13:15:25.648Z,17.00
2018-01-07T13:17:53.148Z,16.53
2018-01-07T13:20:21.367Z,14.20
2018-01-07T13:22:48.874Z,15.23
2018-01-07T13:25:17.218Z,16.10
2018-01-07T13:27:44.715Z,15.30
2018-01-07T13:30:12.172Z,14.80
2018-01-07T13:32:39.654Z,14.03
2018-01-07T13:35:07.103Z,13.63
2018-01-07T13:37:34.593Z,14.10
2018-01-07T13:40:02.036Z,13.57
2018-01-07T13:42:29.568Z,15.30
2018-01-07T13:44:57.030Z,13.83
2018-01-07T13:47:24.498Z,13.50
2018-01-07T13:49:51.989Z,13.07
2018-01-07T13:52:19.456Z,13.57
2018-01-07T13:54:47.743Z,14.00
2018-01-07T13:57:15.990Z,12.97
2018-01-07T13:59:44.963Z,12.77
2018-01-07T14:02:12.452Z,14.70
2018-01-07T14:04:40.763Z,11.80
2018-01-07T14:07:08.211Z,11.67
2018-01-07T14:09:35.718Z,11.37
2018-01-07T14:12:03.193Z,11.30
2018-01-07T14:14:30.652Z,11.93
2018-01-07T14:16:58.883Z,10.93
2018-01-07T14:19:26.349Z,11.20
2018-01-07T14:21:53.825Z,12.47
2018-01-07T14:24:21.314Z,11.10
2018-01-07T14:26:48.779Z,11.13
2018-01-07T14:29:16.248Z,11.20
2018-01-07T14:31:43.713Z,11.63
2018-01-07T14:34:11.205Z,10.30
2018-01-07T14:36:38.706Z,12.03
2018-01-07T14:39:06.171Z,11.80
2018-01-07T14:41:33.760Z,12.73
2018-01-07T14:44:01.239Z,12.43
2018-01-07T14:46:28.686Z,11.70
2018-01-07T14:48:56.175Z,11.50
2018-01-07T14:51:23.700Z,11.80
2018-01-07T14:53:52.666Z,12.07
2018-01-07T14:56:20.173Z,12.00
2018-01-07T14:58:48.391Z,11.00
2018-01-07T15:01:15.860Z,13.10
2018-01-07T15:03:43.384Z,13.70
2018-01-07T15:06:10.836Z,13.00
2018-01-07T15:08:38.336Z,15.07
2018-01-07T15:11:05.824Z,16.93
2018-01-07T15:13:34.062Z,19.53
2018-01-07T15:16:01.555Z,21.20
2018-01-07T15:18:29.789Z,20.70
2018-01-07T15:20:57.278Z,21.40
2018-01-07T15:23:25.500Z,21.77
2018-01-07T15:25:52.953Z,22.43
2018-01-07T15:28:20.446Z,20.00
2018-01-07T15:30:47.913Z,20.57
2018-01-07T15:33:16.224Z,19.57
2018-01-07T15:35:43.685Z,18.37
2018-01-07T15:38:11.183Z,18.23
2018-01-07T15:40:38.652Z,16.40
2018-01-07T15:43:06.126Z,16.07
2018-01-07T15:45:34.370Z,14.93
2018-01-07T15:48:01.833Z,16.20
2018-01-07T15:50:29.489Z,14.70
2018-01-07T15:52:57.059Z,14.20
2018-01-07T15:55:25.301Z,15.47
2018-01-07T15:57:52.784Z,14.57
2018-01-07T16:00:20.279Z,14.20
2018-01-07T16:02:47.879Z,13.70
2018-01-07T16:05:16.867Z,13.90
2018-01-07T16:07:44.488Z,12.93
2018-01-07T16:10:11.970Z,13.67
2018-01-07T16:12:39.424Z,11.40
2018-01-07T16:15:06.904Z,13.20
2018-01-07T16:17:34.503Z,13.70
2018-01-07T16:20:02.003Z,14.20
2018-01-07T16:22:29.465Z,13.77
2018-01-07T16:24:57.122Z,14.10
2018-01-07T16:27:24.555Z,14.87
2018-01-07T16:29:52.032Z,14.40
2018-01-07T16:32:23.117Z,14.20
2018-01-07T16:34:51.215Z,14.07
2018-01-07T16:37:18.692Z,14.13
2018-01-07T16:39:46.145Z,15.40
2018-01-07T16:42:13.676Z,15.90
2018-01-07T16:44:41.143Z,13.93
2018-01-07T16:47:08.650Z,14.17
2018-01-07T16:49:36.842Z,14.43
2018-01-07T16:52:05.103Z,16.17
2018-01-07T16:54:33.319Z,14.83
2018-01-07T16:57:00.899Z,17.80
2018-01-07T16:59:28.390Z,15.77
2018-01-07T17:01:56.662Z,15.97
2018-01-07T17:04:24.906Z,16.03
2018-01-07T17:06:52.354Z,16.40
2018-01-07T17:09:19.843Z,17.80
2018-01-07T17:11:47.387Z,17.97
2018-01-07T17:14:14.861Z,19.50
2018-01-07T17:16:42.439Z,17.63
2018-01-07T17:19:10.664Z,18.30
2018-01-07T17:21:38.155Z,17.20
2018-01-07T17:24:05.647Z,17.47
2018-01-07T17:26:33.098Z,17.57
2018-01-07T17:29:00.559Z,18.23
2018-01-07T17:31:28.053Z,18.80
2018-01-07T17:33:55.516Z,19.97
2018-01-07T17:36:23.021Z,21.00
2018-01-07T17:38:50.484Z,19.90
2018-01-07T17:41:18.037Z,23.80
2018-01-07T17:43:45.499Z,21.77
2018-01-07T17:46:12.980Z,23.70
2018-01-07T17:48:40.449Z,20.90
2018-01-07T17:51:07.942Z,20.77
2018-01-07T17:53:35.411Z,20.70
2018-01-07T17:56:02.924Z,21.17
2018-01-07T17:58:30.405Z,20.57
2018-01-07T18:00:58.653Z,22.17
2018-01-07T18:03:26.240Z,23.13
2018-01-07T18:05:54.475Z,22.10
2018-01-07T18:08:21.990Z,22.80
2018-01-07T18:10:49.449Z,23.67
2018-01-07T18:13:16.944Z,24.53
2018-01-07T18:15:44.421Z,22.10
2018-01-07T18:18:12.648Z,25.13
2018-01-07T18:20:40.132Z,25.47
2018-01-07T18:23:07.713Z,25.23
2018-01-07T18:25:36.020Z,24.27
2018-01-07T18:28:03.481Z,25.63
2018-01-07T18:30:30.931Z,25.77
2018-01-07T18:32:58.446Z,24.73
2018-01-07T18:35:25.945Z,25.67
2018-01-07T18:37:53.400Z,26.20
2018-01-07T18:40:20.961Z,24.47
2018-01-07T18:42:48.409Z,27.70
2018-01-07T18:45:15.925Z,24.30
2018-01-07T18:47:43.416Z,25.70
2018-01-07T18:50:10.894Z,25.50
2018-01-07T18:52:38.347Z,25.67
2018-01-07T18:55:05.828Z,26.33
2018-01-07T18:57:33.317Z,23.97
2018-01-07T19:00:01.530Z,26.10
2018-01-07T19:02:29.019Z,27.83
2018-01-07T19:04:56.470Z,27.60
2018-01-07T19:07:23.938Z,26.23
2018-01-07T19:09:51.403Z,27.97
2018-01-07T19:12:18.882Z,27.73
2018-01-07T19:14:47.131Z,25.87
2018-01-07T19:17:14.688Z,30.63
2018-01-07T19:19:42.168Z,28.73
2018-01-07T19:22:10.401Z,26.97
2018-01-07T19:24:37.868Z,28.23
2018-01-07T19:27:05.432Z,28.40
2018-01-07T19:29:32.916Z,30.00
2018-01-07T19:32:01.153Z,26.23
2018-01-07T19:34:28.644Z,25.27
2018-01-07T19:36:56.154Z,28.97
2018-01-07T19:39:23.783Z,26.83
2018-01-07T19:41:51.243Z,26.77
2018-01-07T19:44:18.737Z,26.80
2018-01-07T19:46:46.208Z,27.70
2018-01-07T19:49:13.693Z,27.30
2018-01-07T19:51:41.241Z,27.23
2018-01-07T19:54:09.541Z,25.30
2018-01-07T19:56:37.062Z,25.13
2018-01-07T19:59:05.296Z,25.97
2018-01-07T20:01:32.834Z,27.87
2018-01-07T20:04:00.478Z,25.83
2018-01-07T20:06:28.047Z,28.37
2018-01-07T20:08:55.542Z,24.83
2018-01-07T20:11:23.007Z,26.73
2018-01-07T20:13:50.500Z,27.87
2018-01-07T20:16:18.233Z,25.00
2018-01-07T20:18:45.707Z,26.10
2018-01-07T20:21:13.974Z,24.60
2018-01-07T20:23:42.230Z,27.07
2018-01-07T20:26:09.778Z,25.30
2018-01-07T20:28:37.297Z,25.97
2018-01-07T20:31:04.829Z,27.73
2018-01-07T20:33:33.118Z,26.47
2018-01-07T20:36:00.655Z,24.23
2018-01-07T20:38:28.928Z,25.50
2018-01-07T20:40:57.208Z,25.53
2018-01-07T20:43:25.487Z,26.10
2018-01-07T20:45:53.741Z,25.67
2018-01-07T20:48:21.191Z,26.37
2018-01-07T20:50:48.661Z,26.97
2018-01-07T20:53:16.899Z,26.10
2018-01-07T20:55:44.365Z,25.70
2018-01-07T20:58:11.849Z,26.63
2018-01-07T21:00:40.114Z,26.37
2018-01-07T21:03:07.589Z,28.07
2018-01-07T21:05:35.114Z,25.33
2018-01-07T21:08:02.645Z,27.17
2018-01-07T21:10:30.114Z,27.17
2018-01-07T21:12:57.627Z,27.80
2018-01-07T21:15:25.138Z,26.37
2018-01-07T21:17:52.706Z,26.50
2018-01-07T21:20:20.183Z,27.70
2018-01-07T21:22:48.432Z,27.00
2018-01-07T21:25:15.946Z,25.07
2018-01-07T21:27:43.434Z,26.53
2018-01-07T21:30:10.905Z,27.50
2018-01-07T21:32:38.381Z,24.53
2018-01-07T21:35:06.615Z,26.13
2018-01-07T21:37:34.239Z,27.40
2018-01-07T21:40:01.746Z,28.53
2018-01-07T21:42:29.237Z,26.77
2018-01-07T21:44:56.722Z,26.83
2018-01-07T21:47:24.310Z,26.97
2018-01-07T21:49:51.876Z,27.97
2018-01-07T21:52:19.378Z,30.40
2018-01-07T21:54:46.983Z,27.40
2018-01-07T21:57:14.548Z,27.90
2018-01-07T21:59:53.762Z,29.03
2018-01-07T22:02:27.245Z,25.37
2018-01-07T22:04:58.854Z,27.17
2018-01-07T22:07:27.260Z,26.70
2018-01-07T22:09:54.775Z,27.07
2018-01-07T22:12:22.992Z,27.60
2018-01-07T22:14:50.468Z,25.97
2018-01-07T22:17:17.931Z,28.10
2018-01-07T22:19:45.403Z,25.77
2018-01-07T22:22:12.855Z,26.23
2018-01-07T22:24:40.357Z,28.97
2018-01-07T22:27:07.816Z,27.93
2018-01-07T22:29:35.276Z,27.00
2018-01-07T22:32:02.751Z,27.63
2018-01-07T22:34:30.244Z,28.60
2018-01-07T22:36:58.561Z,28.30
2018-01-07T22:39:26.074Z,26.23
2018-01-07T22:41:53.638Z,28.27
2018-01-07T22:44:21.864Z,28.03
2018-01-07T22:46:49.336Z,27.60
2018-01-07T22:49:16.816Z,27.47
2018-01-07T22:51:44.307Z,29.43
2018-01-07T22:54:11.777Z,26.67
2018-01-07T22:56:39.276Z,29.00
2018-01-07T22:59:06.862Z,26.57
2018-01-07T23:01:35.074Z,28.73
2018-01-07T23:04:02.619Z,26.70
2018-01-07T23:06:30.082Z,28.37
2018-01-07T23:08:57.630Z,29.40
2018-01-07T23:11:25.136Z,27.23
2018-01-07T23:13:52.603Z,27.33
2018-01-07T23:16:20.164Z,28.40
2018-01-07T23:18:48.408Z,30.57
2018-01-07T23:21:15.950Z,30.30
2018-01-07T23:23:43.394Z,30.20
2018-01-07T23:26:10.870Z,28.80
2018-01-07T23:28:38.372Z,28.00
2018-01-07T23:31:06.678Z,26.87
2018-01-07T23:33:34.142Z,27.77
2018-01-07T23:36:01.641Z,28.70
2018-01-07T23:38:29.116Z,27.73
2018-01-07T23:40:57.486Z,27.90
2018-01-07T23:43:25.761Z,30.93
2018-01-07T23:45:54.015Z,30.67
2018-01-07T23:48:21.462Z,29.63
2018-01-07T23:50:48.946Z,29.40
2018-01-07T23:53:17.229Z,29.47
2018-01-07T23:55:45.445Z,29.23
2018-01-07T23:58:12.895Z,30.20
